createdAt,value
2022-09-11T00:00:42.006Z,2.08
2022-09-11T00:03:12.512Z,2.35
2022-09-11T00:05:44.000Z,2.53
2022-09-11T00:08:20.466Z,2.40
2022-09-11T00:10:52.184Z,2.30
2022-09-11T00:13:25.704Z,2.67
2022-09-11T00:15:55.859Z,2.50
2022-09-11T00:18:28.440Z,2.20
2022-09-11T00:21:00.811Z,2.20
2022-09-11T00:23:33.507Z,2.30
2022-09-11T00:26:06.292Z,2.40
2022-09-11T00:28:37.174Z,2.40
2022-09-11T00:31:10.238Z,2.42
2022-09-11T00:33:40.300Z,2.30
2022-09-11T00:36:15.875Z,2.10
2022-09-11T00:38:48.699Z,2.30
2022-09-11T00:41:22.477Z,2.15
2022-09-11T00:44:04.247Z,2.20
2022-09-11T00:46:41.869Z,2.30
2022-09-11T00:49:24.883Z,2.40
2022-09-11T00:52:00.958Z,2.22
2022-09-11T00:54:38.678Z,1.95
2022-09-11T00:57:11.502Z,1.98
2022-09-11T00:59:45.842Z,2.10
2022-09-11T01:02:27.180Z,2.30
2022-09-11T01:04:59.248Z,2.30
2022-09-11T01:07:32.254Z,2.20
2022-09-11T01:10:05.368Z,2.10
2022-09-11T01:12:44.607Z,2.00
2022-09-11T01:15:24.461Z,2.33
2022-09-11T01:18:06.344Z,2.00
2022-09-11T01:20:53.455Z,2.28
2022-09-11T01:23:42.902Z,2.40
2022-09-11T01:26:41.360Z,2.20
2022-09-11T01:29:22.912Z,2.40
2022-09-11T01:32:02.739Z,2.40
2022-09-11T01:34:40.606Z,2.33
2022-09-11T01:37:17.774Z,2.15
2022-09-11T01:39:54.574Z,2.90
2022-09-11T01:42:27.880Z,2.92
2022-09-11T01:45:00.761Z,2.78
2022-09-11T01:47:33.109Z,2.47
2022-09-11T01:50:07.519Z,2.80
2022-09-11T01:52:45.106Z,2.55
2022-09-11T01:55:20.925Z,2.70
2022-09-11T01:57:55.537Z,2.80
2022-09-11T02:00:28.912Z,2.60
2022-09-11T02:03:03.940Z,2.97
2022-09-11T02:05:43.883Z,3.38
2022-09-11T02:08:24.459Z,2.90
2022-09-11T02:11:03.850Z,3.03
2022-09-11T02:13:42.218Z,3.25
2022-09-11T02:16:22.955Z,2.97
2022-09-11T02:19:03.541Z,3.25
2022-09-11T02:21:34.832Z,2.60
2022-09-11T02:24:05.723Z,2.55
2022-09-11T02:29:11.845Z,2.53
2022-09-11T02:31:45.601Z,2.30
2022-09-11T02:34:18.043Z,2.50
2022-09-11T02:37:07.163Z,3.03
2022-09-11T02:40:02.600Z,3.22
2022-09-11T02:42:47.376Z,3.22
2022-09-11T02:45:35.717Z,2.78
2022-09-11T02:48:32.650Z,3.03
2022-09-11T02:51:11.517Z,2.80
2022-09-11T02:53:51.565Z,3.10
2022-09-11T02:56:34.804Z,2.90
2022-09-11T02:59:11.266Z,2.83
2022-09-11T03:01:55.318Z,2.67
2022-09-11T03:04:34.913Z,3.00
2022-09-11T03:07:06.990Z,2.42
2022-09-11T03:09:37.709Z,2.22
2022-09-11T03:12:14.279Z,2.60
2022-09-11T03:14:44.501Z,2.50
2022-09-11T03:17:14.627Z,2.70
2022-09-11T03:19:47.370Z,2.40
2022-09-11T03:22:17.521Z,2.60
2022-09-11T03:24:48.217Z,2.58
2022-09-11T03:27:18.586Z,2.38
2022-09-11T03:29:48.974Z,4.82
2022-09-11T03:32:19.307Z,3.42
2022-09-11T03:34:52.255Z,2.88
2022-09-11T03:37:22.342Z,2.72
2022-09-11T03:39:54.893Z,2.63
2022-09-11T03:42:25.291Z,2.70
2022-09-11T03:44:55.435Z,2.38
2022-09-11T03:47:25.589Z,2.60
2022-09-11T03:49:59.794Z,2.80
2022-09-11T03:52:30.394Z,2.90
2022-09-11T03:55:00.484Z,2.85
2022-09-11T03:57:30.730Z,2.90
2022-09-11T04:00:01.587Z,3.30
2022-09-11T04:02:37.543Z,3.17
2022-09-11T04:05:12.236Z,2.83
2022-09-11T04:07:43.602Z,2.90
2022-09-11T04:10:14.657Z,3.60
2022-09-11T04:12:44.830Z,3.38
2022-09-11T04:15:15.134Z,3.03
2022-09-11T04:17:45.196Z,3.37
2022-09-11T04:20:18.362Z,3.83
2022-09-11T04:22:49.433Z,3.30
2022-09-11T04:25:19.702Z,3.10
2022-09-11T04:27:49.833Z,2.70
2022-09-11T04:30:22.400Z,3.20
2022-09-11T04:32:53.288Z,3.55
2022-09-11T04:35:27.126Z,3.30
2022-09-11T04:38:00.164Z,3.83
2022-09-11T04:40:30.175Z,3.30
2022-09-11T04:43:01.145Z,3.35
2022-09-11T04:45:33.384Z,3.03
2022-09-11T04:48:06.258Z,3.33
2022-09-11T04:50:38.981Z,3.17
2022-09-11T04:53:24.558Z,3.25
2022-09-11T04:55:55.202Z,3.42
2022-09-11T04:58:25.756Z,3.33
2022-09-11T05:00:55.832Z,3.78
2022-09-11T05:03:26.346Z,3.93
2022-09-11T05:06:01.549Z,4.65
2022-09-11T05:08:32.942Z,4.40
2022-09-11T05:11:05.496Z,4.90
2022-09-11T05:13:36.786Z,4.55
2022-09-11T05:16:09.983Z,4.70
2022-09-11T05:18:40.693Z,4.57
2022-09-11T05:21:18.313Z,5.07
2022-09-11T05:23:52.213Z,5.13
2022-09-11T05:26:24.759Z,5.00
2022-09-11T05:28:57.571Z,5.10
2022-09-11T05:31:29.044Z,5.43
2022-09-11T05:34:00.612Z,5.68
2022-09-11T05:36:35.439Z,5.75
2022-09-11T05:39:07.214Z,5.32
2022-09-11T05:41:37.868Z,6.90
2022-09-11T05:44:08.176Z,6.40
2022-09-11T05:46:40.658Z,6.65
2022-09-11T05:49:10.708Z,6.40
2022-09-11T05:51:45.924Z,9.98
2022-09-11T05:54:16.084Z,7.53
2022-09-11T05:56:48.190Z,7.28
2022-09-11T05:59:27.200Z,7.43
2022-09-11T06:01:57.449Z,7.47
2022-09-11T06:04:40.177Z,8.23
2022-09-11T06:07:14.327Z,7.45
2022-09-11T06:09:46.185Z,7.93
2022-09-11T06:12:16.196Z,8.37
2022-09-11T06:14:46.742Z,10.52
2022-09-11T06:19:48.069Z,12.03
2022-09-11T06:22:22.469Z,10.13
2022-09-11T06:24:54.366Z,11.52
2022-09-11T06:27:25.223Z,10.45
2022-09-11T06:29:56.531Z,10.73
2022-09-11T06:32:26.512Z,11.47
2022-09-11T06:34:59.082Z,11.38
2022-09-11T06:37:31.972Z,11.70
2022-09-11T06:40:03.254Z,11.88
2022-09-11T06:42:34.050Z,13.18
2022-09-11T06:45:04.775Z,13.35
2022-09-11T06:47:35.032Z,13.18
2022-09-11T06:50:06.974Z,12.88
2022-09-11T06:52:50.247Z,14.40
2022-09-11T06:55:30.409Z,13.38
2022-09-11T06:58:07.560Z,14.63
2022-09-11T07:00:40.687Z,16.70
2022-09-11T07:03:16.887Z,13.75
2022-09-11T07:05:49.869Z,14.85
2022-09-11T07:08:24.968Z,14.85
2022-09-11T07:10:55.627Z,14.15
2022-09-11T07:16:03.405Z,16.23
2022-09-11T07:18:37.869Z,15.90
2022-09-11T07:21:14.208Z,12.43
2022-09-11T07:23:51.251Z,12.90
2022-09-11T07:26:23.551Z,14.65
2022-09-11T07:28:57.727Z,12.48
2022-09-11T07:34:00.098Z,13.30
2022-09-11T07:39:05.677Z,14.98
2022-09-11T07:41:52.946Z,13.60
2022-09-11T07:44:28.504Z,13.00
2022-09-11T07:47:00.944Z,14.30
2022-09-11T07:49:33.452Z,17.17
2022-09-11T07:52:03.712Z,16.55
2022-09-11T07:54:51.310Z,14.75
2022-09-11T07:57:24.310Z,13.98
2022-09-11T07:59:54.957Z,13.55
2022-09-11T08:02:25.558Z,15.05
2022-09-11T08:04:56.458Z,14.30
2022-09-11T08:07:26.978Z,13.02
2022-09-11T08:10:23.263Z,12.27
2022-09-11T08:12:50.936Z,13.07
2022-09-11T08:15:21.840Z,14.95
2022-09-11T08:17:52.876Z,13.77
2022-09-11T08:20:22.946Z,13.32
2022-09-11T08:22:53.151Z,12.75
2022-09-11T08:25:25.854Z,12.35
2022-09-11T08:27:55.942Z,12.75
2022-09-11T08:30:27.427Z,11.73
2022-09-11T08:32:57.537Z,10.02
2022-09-11T08:35:28.226Z,10.45
2022-09-11T08:37:58.382Z,9.02
2022-09-11T08:40:32.308Z,8.52
2022-09-11T08:43:06.576Z,8.15
2022-09-11T08:45:38.882Z,7.68
2022-09-11T08:48:11.374Z,8.68
2022-09-11T08:50:45.850Z,8.10
2022-09-11T08:53:21.395Z,6.80
2022-09-11T08:56:03.207Z,6.68
2022-09-11T08:58:44.653Z,6.20
2022-09-11T09:04:27.625Z,5.32
2022-09-11T09:07:12.062Z,6.20
2022-09-11T09:09:54.046Z,4.75
2022-09-11T09:15:21.366Z,4.35
2022-09-11T09:18:00.720Z,4.63
2022-09-11T09:20:37.451Z,5.40
2022-09-11T09:23:19.195Z,5.28
2022-09-11T09:25:52.849Z,4.80
2022-09-11T09:28:29.521Z,4.60
2022-09-11T09:31:06.090Z,4.28
2022-09-11T09:33:38.705Z,4.28
2022-09-11T09:36:17.846Z,5.05
2022-09-11T09:38:49.349Z,12.27
2022-09-11T09:42:03.820Z,6.10
2022-09-11T09:44:56.543Z,4.88
2022-09-11T09:47:26.906Z,4.70
2022-09-11T09:49:59.237Z,6.50
2022-09-11T09:52:36.159Z,5.97
2022-09-11T09:55:17.540Z,5.32
2022-09-11T09:57:48.207Z,4.57
2022-09-11T10:02:56.655Z,5.95
2022-09-11T10:05:31.172Z,6.60
2022-09-11T10:08:03.835Z,7.82
2022-09-11T10:10:38.192Z,8.00
2022-09-11T10:13:25.165Z,7.20
2022-09-11T10:16:02.048Z,7.88
2022-09-11T10:18:42.411Z,8.13
2022-09-11T10:21:37.512Z,9.70
2022-09-11T10:24:26.347Z,11.68
2022-09-11T10:26:59.291Z,12.50
2022-09-11T10:29:32.368Z,11.10
2022-09-11T10:32:06.577Z,10.90
2022-09-11T10:34:41.158Z,10.65
2022-09-11T10:37:27.435Z,10.00
2022-09-11T10:40:08.322Z,10.38
2022-09-11T10:42:40.235Z,11.13
2022-09-11T10:45:18.121Z,11.35
2022-09-11T10:47:51.012Z,11.52
2022-09-11T10:50:29.770Z,11.48
2022-09-11T10:53:19.892Z,11.45
2022-09-11T10:56:00.279Z,18.53
2022-09-11T10:58:36.929Z,19.10
2022-09-11T11:01:07.141Z,16.00
2022-09-11T11:03:39.996Z,13.95
2022-09-11T11:06:26.449Z,13.60
2022-09-11T11:09:17.055Z,13.50
2022-09-11T11:12:05.487Z,11.85
2022-09-11T11:14:59.376Z,11.07
2022-09-11T11:17:43.275Z,9.93
2022-09-11T11:20:30.238Z,11.07
2022-09-11T11:23:22.355Z,10.43
2022-09-11T11:26:06.529Z,13.00
2022-09-11T11:28:58.726Z,13.13
2022-09-11T11:31:44.226Z,16.60
2022-09-11T11:34:36.899Z,17.63
2022-09-11T11:37:18.022Z,16.13
2022-09-11T11:39:57.327Z,16.02
2022-09-11T11:42:31.169Z,14.80
2022-09-11T11:45:07.492Z,16.70
2022-09-11T11:47:42.725Z,17.23
2022-09-11T11:50:31.123Z,17.42
2022-09-11T11:53:13.154Z,16.10
2022-09-11T11:55:58.020Z,15.30
2022-09-11T11:58:43.725Z,14.88
2022-09-11T12:01:25.780Z,14.55
2022-09-11T12:04:04.518Z,15.30
2022-09-11T12:06:35.436Z,16.00
2022-09-11T12:09:11.896Z,15.43
2022-09-11T12:11:42.299Z,16.17
2022-09-11T12:14:32.233Z,15.85
2022-09-11T12:17:21.914Z,14.77
2022-09-11T12:20:18.701Z,14.50
2022-09-11T12:22:50.617Z,14.60
2022-09-11T12:25:54.745Z,14.00
2022-09-11T12:28:27.580Z,11.75
2022-09-11T12:31:07.992Z,10.85
2022-09-11T12:33:58.156Z,10.80
2022-09-11T12:36:36.313Z,10.67
2022-09-11T12:39:27.732Z,10.32
2022-09-11T12:42:42.840Z,10.65
2022-09-11T12:45:35.211Z,9.38
2022-09-11T12:48:09.448Z,12.27
2022-09-11T12:50:40.868Z,12.77
2022-09-11T12:53:22.924Z,13.80
2022-09-11T12:55:59.520Z,14.52
2022-09-11T12:58:36.813Z,15.32
2022-09-11T13:01:20.686Z,14.23
2022-09-11T13:04:01.167Z,14.95
2022-09-11T13:06:43.363Z,14.30
2022-09-11T13:09:24.281Z,12.10
2022-09-11T13:11:57.058Z,12.50
2022-09-11T13:14:52.089Z,10.95
2022-09-11T13:17:31.459Z,11.40
2022-09-11T13:20:24.331Z,10.88
2022-09-11T13:22:58.387Z,9.50
2022-09-11T13:25:31.643Z,8.55
2022-09-11T13:28:04.419Z,8.65
2022-09-11T13:30:35.158Z,8.68
2022-09-11T13:35:43.379Z,7.85
2022-09-11T13:38:21.470Z,7.82
2022-09-11T13:40:58.134Z,7.13
2022-09-11T13:43:32.536Z,6.00
2022-09-11T13:46:24.100Z,26.77
2022-09-11T13:49:01.613Z,9.02
2022-09-11T13:51:33.416Z,5.93
2022-09-11T13:54:11.756Z,6.03
2022-09-11T13:56:48.038Z,5.80
2022-09-11T13:59:41.726Z,5.72
2022-09-11T14:02:41.467Z,6.03
2022-09-11T14:05:20.901Z,6.30
2022-09-11T14:08:01.675Z,6.30
2022-09-11T14:13:15.405Z,6.53
2022-09-11T14:15:50.789Z,6.20
2022-09-11T14:18:35.335Z,6.20
2022-09-11T14:21:15.982Z,6.00
2022-09-11T14:23:50.780Z,5.18
2022-09-11T14:26:22.960Z,5.70
2022-09-11T14:29:06.284Z,6.38
2022-09-11T14:31:40.092Z,6.10
2022-09-11T14:34:20.511Z,6.10
2022-09-11T14:36:59.449Z,6.00
2022-09-11T14:39:36.223Z,8.25
2022-09-11T14:42:10.080Z,10.15
2022-09-11T14:44:42.249Z,5.00
2022-09-11T14:47:19.205Z,3.92
2022-09-11T14:49:50.006Z,4.10
2022-09-11T14:54:55.345Z,4.15
2022-09-11T14:57:33.981Z,3.28
2022-09-11T15:00:04.338Z,3.00
2022-09-11T15:02:34.510Z,3.20
2022-09-11T15:05:04.676Z,3.60
2022-09-11T15:07:37.385Z,3.10
2022-09-11T15:10:08.717Z,2.92
2022-09-11T15:12:38.790Z,2.53
2022-09-11T15:15:10.714Z,2.40
2022-09-11T15:17:40.892Z,2.50
2022-09-11T15:20:12.236Z,2.30
2022-09-11T15:22:44.938Z,2.42
2022-09-11T15:25:15.195Z,2.60
2022-09-11T15:27:45.315Z,2.90
2022-09-11T15:35:18.371Z,2.50
2022-09-11T15:37:51.068Z,2.60
2022-09-11T15:40:21.338Z,2.47
2022-09-11T15:42:52.174Z,3.00
2022-09-11T15:45:22.235Z,2.90
2022-09-11T15:50:27.915Z,2.88
2022-09-11T15:53:02.012Z,2.70
2022-09-11T15:55:32.524Z,3.08
2022-09-11T15:58:03.287Z,2.90
2022-09-11T16:00:33.398Z,3.40
2022-09-11T16:03:03.497Z,3.30
2022-09-11T16:05:33.665Z,3.33
2022-09-11T16:08:06.324Z,5.55
2022-09-11T16:10:39.998Z,4.00
2022-09-11T16:13:10.553Z,3.22
2022-09-11T16:15:40.884Z,3.60
2022-09-11T16:18:12.076Z,3.72
2022-09-11T16:20:44.115Z,2.97
2022-09-11T16:23:16.874Z,3.10
2022-09-11T16:25:46.950Z,3.28
2022-09-11T16:28:17.056Z,3.95
2022-09-11T16:30:51.057Z,3.80
2022-09-11T16:33:23.066Z,4.22
2022-09-11T16:36:03.969Z,4.60
2022-09-11T16:38:39.514Z,4.03
2022-09-11T16:41:15.829Z,4.45
2022-09-11T16:43:48.730Z,5.07
2022-09-11T16:46:21.880Z,5.55
2022-09-11T16:48:54.928Z,5.80
2022-09-11T16:51:26.664Z,5.15
2022-09-11T16:53:59.658Z,5.63
2022-09-11T16:56:30.390Z,5.65
2022-09-11T17:01:31.243Z,5.45
2022-09-11T17:04:01.479Z,5.47
2022-09-11T17:06:32.359Z,6.40
2022-09-11T17:09:06.329Z,5.30
2022-09-11T17:11:37.376Z,5.68
2022-09-11T17:14:08.295Z,6.15
2022-09-11T17:16:38.695Z,5.38
2022-09-11T17:19:10.526Z,5.90
2022-09-11T17:21:40.709Z,5.60
2022-09-11T17:24:14.179Z,5.88
2022-09-11T17:26:44.263Z,5.47
2022-09-11T17:29:14.854Z,5.78
2022-09-11T17:31:44.992Z,5.65
2022-09-11T17:34:15.095Z,8.98
2022-09-11T17:36:45.302Z,6.10
2022-09-11T17:39:17.988Z,6.07
2022-09-11T17:41:48.062Z,5.88
2022-09-11T17:44:18.267Z,6.07
2022-09-11T17:46:48.310Z,5.78
2022-09-11T17:49:18.506Z,7.73
2022-09-11T17:51:49.180Z,6.45
2022-09-11T17:54:22.222Z,6.40
2022-09-11T17:56:52.245Z,6.65
2022-09-11T17:59:22.365Z,6.43
2022-09-11T18:01:52.855Z,5.97
2022-09-11T18:04:22.992Z,6.60
2022-09-11T18:06:53.272Z,6.22
2022-09-11T18:09:26.109Z,7.22
2022-09-11T18:11:56.702Z,6.10
2022-09-11T18:14:27.777Z,5.57
2022-09-11T18:16:57.904Z,5.40
2022-09-11T18:19:28.234Z,5.80
2022-09-11T18:21:59.849Z,6.80
2022-09-11T18:24:33.219Z,7.45
2022-09-11T18:27:05.472Z,9.25
2022-09-11T18:29:35.827Z,8.85
2022-09-11T18:32:06.752Z,9.63
2022-09-11T18:34:37.023Z,7.30
2022-09-11T18:37:07.818Z,6.38
2022-09-11T18:39:40.920Z,6.00
2022-09-11T18:42:11.223Z,6.20
2022-09-11T18:44:41.538Z,7.35
2022-09-11T18:47:11.808Z,8.63
2022-09-11T18:49:42.243Z,9.68
2022-09-11T18:52:14.741Z,10.75
2022-09-11T18:54:47.656Z,10.77
2022-09-11T18:57:17.949Z,12.25
2022-09-11T18:59:49.017Z,10.93
2022-09-11T19:02:19.252Z,11.00
2022-09-11T19:04:49.762Z,19.55
2022-09-11T19:07:20.002Z,13.65
2022-09-11T19:09:54.125Z,9.80
2022-09-11T19:12:24.552Z,10.00
2022-09-11T19:14:55.679Z,9.60
2022-09-11T19:17:26.042Z,10.77
2022-09-11T19:19:56.396Z,10.38
2022-09-11T19:22:28.177Z,9.98
2022-09-11T19:25:01.264Z,7.38
2022-09-11T19:27:32.301Z,10.48
2022-09-11T19:30:02.887Z,10.85
2022-09-11T19:32:33.299Z,8.00
2022-09-11T19:35:04.002Z,9.00
2022-09-11T19:37:34.315Z,7.65
2022-09-11T19:40:07.781Z,10.48
2022-09-11T19:42:38.178Z,9.45
2022-09-11T19:45:10.799Z,8.87
2022-09-11T19:47:41.160Z,8.40
2022-09-11T19:50:17.575Z,8.75
2022-09-11T19:52:47.927Z,9.80
2022-09-11T19:55:20.878Z,8.73
2022-09-11T19:57:51.153Z,10.88
2022-09-11T20:00:22.915Z,10.27
2022-09-11T20:02:53.175Z,7.85
2022-09-11T20:05:23.814Z,8.15
2022-09-11T20:07:54.246Z,8.38
2022-09-11T20:10:27.851Z,9.10
2022-09-11T20:13:00.383Z,10.23
2022-09-11T20:15:31.203Z,9.17
2022-09-11T20:18:01.402Z,8.50
2022-09-11T20:20:31.717Z,8.85
2022-09-11T20:23:02.135Z,9.35
2022-09-11T20:25:35.259Z,11.55
2022-09-11T20:28:06.385Z,12.25
2022-09-11T20:30:37.043Z,11.88
2022-09-11T20:33:07.488Z,11.82
2022-09-11T20:35:38.006Z,11.05
2022-09-11T20:38:08.371Z,11.18
2022-09-11T20:40:44.022Z,10.82
2022-09-11T20:43:14.292Z,11.85
2022-09-11T20:45:48.241Z,10.73
2022-09-11T20:48:18.843Z,11.27
2022-09-11T20:50:50.507Z,10.50
2022-09-11T20:53:22.150Z,10.85
2022-09-11T20:55:55.178Z,11.65
2022-09-11T20:58:25.446Z,10.90
2022-09-11T21:00:55.820Z,11.13
2022-09-11T21:03:26.104Z,11.20
2022-09-11T21:05:57.642Z,11.57
2022-09-11T21:08:28.423Z,12.70
2022-09-11T21:11:05.076Z,12.32
2022-09-11T21:13:38.999Z,12.00
2022-09-11T21:16:11.682Z,11.82
2022-09-11T21:18:43.159Z,12.20
2022-09-11T21:21:13.267Z,11.73
2022-09-11T21:23:43.466Z,12.77
2022-09-11T21:26:18.702Z,12.23
2022-09-11T21:28:48.739Z,12.43
2022-09-11T21:31:19.798Z,11.97
2022-09-11T21:33:50.033Z,12.65
2022-09-11T21:36:20.697Z,13.93
2022-09-11T21:38:50.744Z,14.02
2022-09-11T21:41:23.502Z,13.23
2022-09-11T21:43:53.608Z,14.00
2022-09-11T21:46:23.907Z,13.38
2022-09-11T21:48:54.220Z,13.05
2022-09-11T21:51:25.120Z,13.40
2022-09-11T21:54:01.990Z,13.35
2022-09-11T21:56:36.946Z,12.90
2022-09-11T21:59:07.135Z,10.90
2022-09-11T22:01:38.467Z,11.98
2022-09-11T22:04:08.644Z,11.32
2022-09-11T22:06:38.746Z,11.83
2022-09-11T22:09:08.796Z,11.80
2022-09-11T22:11:41.900Z,12.00
2022-09-11T22:14:12.018Z,11.95
2022-09-11T22:16:42.117Z,11.13
2022-09-11T22:19:12.323Z,12.60
2022-09-11T22:21:42.642Z,12.15
2022-09-11T22:24:12.753Z,12.52
2022-09-11T22:26:45.321Z,12.13
2022-09-11T22:29:15.846Z,12.15
2022-09-11T22:31:45.952Z,12.30
2022-09-11T22:34:16.232Z,13.50
2022-09-11T22:36:49.368Z,12.98
2022-09-11T22:39:19.504Z,13.45
2022-09-11T22:41:52.377Z,12.73
2022-09-11T22:44:22.615Z,12.70
2022-09-11T22:46:52.706Z,13.57
2022-09-11T22:49:22.780Z,13.07
2022-09-11T22:51:52.880Z,13.70
2022-09-11T22:54:22.877Z,12.67
2022-09-11T22:56:55.525Z,13.17
2022-09-11T22:59:25.704Z,13.32
2022-09-11T23:01:55.857Z,12.90
2022-09-11T23:04:26.072Z,13.20
2022-09-11T23:07:08.573Z,13.30
2022-09-11T23:09:40.344Z,13.55
2022-09-11T23:12:13.646Z,13.93
2022-09-11T23:14:43.718Z,13.45
2022-09-11T23:17:13.820Z,13.43
2022-09-11T23:19:43.883Z,13.57
2022-09-11T23:22:14.066Z,13.23
2022-09-11T23:24:44.170Z,13.82
2022-09-11T23:27:16.844Z,14.77
2022-09-11T23:29:46.929Z,14.20
2022-09-11T23:32:16.989Z,13.70
2022-09-11T23:34:47.010Z,14.03
2022-09-11T23:37:16.989Z,12.87
2022-09-11T23:39:47.458Z,14.17
2022-09-11T23:42:20.229Z,14.48
2022-09-11T23:44:50.303Z,14.35
2022-09-11T23:47:20.406Z,14.33
2022-09-11T23:49:51.029Z,14.67
2022-09-11T23:52:21.177Z,14.70
2022-09-11T23:54:51.367Z,15.23
2022-09-11T23:57:24.082Z,13.77
2022-09-11T23:59:54.174Z,14.30
